sensor_id;sensor_type;location;lat;lon;timestamp;P1;durP1;ratioP1;P2;durP2;ratioP2
18738;SDS011;9498;51.862;19.460;2022-12-13T00:00:56;29.10;;;13.20;;
18738;SDS011;9498;51.862;19.460;2022-12-13T00:03:23;29.73;;;13.57;;
18738;SDS011;9498;51.862;19.460;2022-12-13T00:05:51;37.57;;;13.27;;
18738;SDS011;9498;51.862;19.460;2022-12-13T00:08:19;33.53;;;13.77;;
18738;SDS011;9498;51.862;19.460;2022-12-13T00:10:46;35.63;;;16.00;;
18738;SDS011;9498;51.862;19.460;2022-12-13T00:13:13;34.00;;;14.40;;
18738;SDS011;9498;51.862;19.460;2022-12-13T00:15:41;32.40;;;13.13;;
18738;SDS011;9498;51.862;19.460;2022-12-13T00:18:08;36.17;;;13.27;;
18738;SDS011;9498;51.862;19.460;2022-12-13T00:20:38;30.50;;;12.57;;
18738;SDS011;9498;51.862;19.460;2022-12-13T00:23:07;33.13;;;13.43;;
18738;SDS011;9498;51.862;19.460;2022-12-13T00:25:34;34.67;;;13.20;;
18738;SDS011;9498;51.862;19.460;2022-12-13T00:28:01;33.20;;;12.77;;
18738;SDS011;9498;51.862;19.460;2022-12-13T00:30:29;31.37;;;12.67;;
18738;SDS011;9498;51.862;19.460;2022-12-13T00:32:56;28.70;;;13.00;;
18738;SDS011;9498;51.862;19.460;2022-12-13T00:35:23;33.90;;;13.87;;
18738;SDS011;9498;51.862;19.460;2022-12-13T00:37:51;31.10;;;13.77;;
18738;SDS011;9498;51.862;19.460;2022-12-13T00:40:19;36.05;;;16.42;;
18738;SDS011;9498;51.862;19.460;2022-12-13T00:42:47;32.87;;;13.57;;
18738;SDS011;9498;51.862;19.460;2022-12-13T00:45:14;37.13;;;14.47;;
18738;SDS011;9498;51.862;19.460;2022-12-13T00:47:41;31.33;;;13.10;;
18738;SDS011;9498;51.862;19.460;2022-12-13T00:50:08;30.67;;;13.70;;
18738;SDS011;9498;51.862;19.460;2022-12-13T00:52:36;29.90;;;13.60;;
18738;SDS011;9498;51.862;19.460;2022-12-13T00:55:03;29.17;;;12.97;;
18738;SDS011;9498;51.862;19.460;2022-12-13T00:57:32;28.97;;;12.83;;
18738;SDS011;9498;51.862;19.460;2022-12-13T00:59:59;31.50;;;13.43;;
18738;SDS011;9498;51.862;19.460;2022-12-13T01:02:26;28.23;;;13.07;;
18738;SDS011;9498;51.862;19.460;2022-12-13T01:04:53;30.07;;;12.90;;
18738;SDS011;9498;51.862;19.460;2022-12-13T01:07:21;30.97;;;13.87;;
18738;SDS011;9498;51.862;19.460;2022-12-13T01:09:48;29.70;;;12.77;;
18738;SDS011;9498;51.862;19.460;2022-12-13T01:12:15;26.50;;;12.73;;
18738;SDS011;9498;51.862;19.460;2022-12-13T01:14:44;30.10;;;13.60;;
18738;SDS011;9498;51.862;19.460;2022-12-13T01:17:11;31.13;;;12.97;;
18738;SDS011;9498;51.862;19.460;2022-12-13T01:19:38;27.93;;;12.43;;
18738;SDS011;9498;51.862;19.460;2022-12-13T01:22:06;28.57;;;12.60;;
18738;SDS011;9498;51.862;19.460;2022-12-13T01:24:35;29.10;;;12.27;;
18738;SDS011;9498;51.862;19.460;2022-12-13T01:27:02;27.53;;;11.83;;
18738;SDS011;9498;51.862;19.460;2022-12-13T01:29:29;25.67;;;11.07;;
18738;SDS011;9498;51.862;19.460;2022-12-13T01:31:58;27.23;;;12.27;;
18738;SDS011;9498;51.862;19.460;2022-12-13T01:34:25;26.57;;;12.73;;
18738;SDS011;9498;51.862;19.460;2022-12-13T01:36:53;29.27;;;11.90;;
18738;SDS011;9498;51.862;19.460;2022-12-13T01:39:20;27.30;;;12.00;;
18738;SDS011;9498;51.862;19.460;2022-12-13T01:41:48;30.07;;;12.73;;
18738;SDS011;9498;51.862;19.460;2022-12-13T01:47:22;27.53;;;11.90;;
18738;SDS011;9498;51.862;19.460;2022-12-13T01:49:50;29.53;;;14.23;;
18738;SDS011;9498;51.862;19.460;2022-12-13T01:52:18;29.07;;;12.53;;
18738;SDS011;9498;51.862;19.460;2022-12-13T01:54:46;26.10;;;11.60;;
18738;SDS011;9498;51.862;19.460;2022-12-13T01:57:15;24.13;;;11.20;;
18738;SDS011;9498;51.862;19.460;2022-12-13T01:59:44;24.43;;;11.53;;
18738;SDS011;9498;51.862;19.460;2022-12-13T02:02:12;25.37;;;11.50;;
18738;SDS011;9498;51.862;19.460;2022-12-13T02:04:43;26.20;;;11.03;;
18738;SDS011;9498;51.862;19.460;2022-12-13T02:07:12;26.87;;;11.67;;
18738;SDS011;9498;51.862;19.460;2022-12-13T02:09:41;26.17;;;11.33;;
18738;SDS011;9498;51.862;19.460;2022-12-13T02:12:08;28.50;;;11.60;;
18738;SDS011;9498;51.862;19.460;2022-12-13T02:14:36;29.97;;;11.63;;
18738;SDS011;9498;51.862;19.460;2022-12-13T02:17:05;29.20;;;11.43;;
18738;SDS011;9498;51.862;19.460;2022-12-13T02:19:53;28.05;;;13.30;;
18738;SDS011;9498;51.862;19.460;2022-12-13T02:22:29;25.20;;;11.80;;
18738;SDS011;9498;51.862;19.460;2022-12-13T02:25:07;25.37;;;11.13;;
18738;SDS011;9498;51.862;19.460;2022-12-13T02:27:47;28.93;;;11.97;;
18738;SDS011;9498;51.862;19.460;2022-12-13T02:30:21;23.50;;;11.37;;
18738;SDS011;9498;51.862;19.460;2022-12-13T02:33:02;23.03;;;11.50;;
18738;SDS011;9498;51.862;19.460;2022-12-13T02:35:36;24.17;;;11.20;;
18738;SDS011;9498;51.862;19.460;2022-12-13T02:38:08;20.67;;;10.87;;
18738;SDS011;9498;51.862;19.460;2022-12-13T02:40:37;25.03;;;11.37;;
18738;SDS011;9498;51.862;19.460;2022-12-13T02:43:07;23.67;;;11.13;;
18738;SDS011;9498;51.862;19.460;2022-12-13T02:45:38;25.73;;;10.67;;
18738;SDS011;9498;51.862;19.460;2022-12-13T02:48:06;24.47;;;10.83;;
18738;SDS011;9498;51.862;19.460;2022-12-13T02:50:35;22.23;;;10.20;;
18738;SDS011;9498;51.862;19.460;2022-12-13T02:53:02;24.93;;;10.40;;
18738;SDS011;9498;51.862;19.460;2022-12-13T02:55:31;23.03;;;10.47;;
18738;SDS011;9498;51.862;19.460;2022-12-13T02:58:00;22.53;;;10.60;;
18738;SDS011;9498;51.862;19.460;2022-12-13T03:00:28;24.05;;;11.57;;
18738;SDS011;9498;51.862;19.460;2022-12-13T03:03:06;24.00;;;11.63;;
18738;SDS011;9498;51.862;19.460;2022-12-13T03:05:39;22.23;;;9.93;;
18738;SDS011;9498;51.862;19.460;2022-12-13T03:08:44;23.07;;;10.60;;
18738;SDS011;9498;51.862;19.460;2022-12-13T03:11:14;23.17;;;10.57;;
18738;SDS011;9498;51.862;19.460;2022-12-13T03:13:44;24.53;;;10.17;;
18738;SDS011;9498;51.862;19.460;2022-12-13T03:16:16;21.53;;;10.40;;
18738;SDS011;9498;51.862;19.460;2022-12-13T03:18:47;25.13;;;11.33;;
18738;SDS011;9498;51.862;19.460;2022-12-13T03:21:16;25.37;;;10.80;;
18738;SDS011;9498;51.862;19.460;2022-12-13T03:23:44;22.00;;;9.73;;
18738;SDS011;9498;51.862;19.460;2022-12-13T03:26:12;21.53;;;10.00;;
18738;SDS011;9498;51.862;19.460;2022-12-13T03:28:41;20.03;;;9.13;;
18738;SDS011;9498;51.862;19.460;2022-12-13T03:31:08;23.03;;;10.17;;
18738;SDS011;9498;51.862;19.460;2022-12-13T03:33:35;25.13;;;11.38;;
18738;SDS011;9498;51.862;19.460;2022-12-13T03:36:05;24.73;;;10.13;;
18738;SDS011;9498;51.862;19.460;2022-12-13T03:38:33;22.23;;;10.47;;
18738;SDS011;9498;51.862;19.460;2022-12-13T03:41:01;19.30;;;9.10;;
18738;SDS011;9498;51.862;19.460;2022-12-13T03:43:29;18.17;;;9.23;;
18738;SDS011;9498;51.862;19.460;2022-12-13T03:45:56;19.97;;;9.07;;
18738;SDS011;9498;51.862;19.460;2022-12-13T03:48:23;19.07;;;9.10;;
18738;SDS011;9498;51.862;19.460;2022-12-13T03:50:51;21.50;;;9.20;;
18738;SDS011;9498;51.862;19.460;2022-12-13T03:53:20;21.00;;;9.67;;
18738;SDS011;9498;51.862;19.460;2022-12-13T03:55:47;17.33;;;8.40;;
18738;SDS011;9498;51.862;19.460;2022-12-13T03:58:15;15.50;;;8.40;;
18738;SDS011;9498;51.862;19.460;2022-12-13T04:00:42;18.87;;;9.43;;
18738;SDS011;9498;51.862;19.460;2022-12-13T04:03:09;23.50;;;11.45;;
18738;SDS011;9498;51.862;19.460;2022-12-13T04:05:37;21.90;;;10.53;;
18738;SDS011;9498;51.862;19.460;2022-12-13T04:08:04;16.73;;;8.30;;
18738;SDS011;9498;51.862;19.460;2022-12-13T04:10:32;17.67;;;8.30;;
18738;SDS011;9498;51.862;19.460;2022-12-13T04:13:00;20.47;;;9.03;;
18738;SDS011;9498;51.862;19.460;2022-12-13T04:15:45;16.40;;;8.23;;
18738;SDS011;9498;51.862;19.460;2022-12-13T04:18:14;17.33;;;8.57;;
18738;SDS011;9498;51.862;19.460;2022-12-13T04:20:41;19.10;;;8.53;;
18738;SDS011;9498;51.862;19.460;2022-12-13T04:23:08;20.63;;;9.20;;
18738;SDS011;9498;51.862;19.460;2022-12-13T04:25:37;14.17;;;7.17;;
18738;SDS011;9498;51.862;19.460;2022-12-13T04:28:04;17.77;;;8.57;;
18738;SDS011;9498;51.862;19.460;2022-12-13T04:30:32;16.40;;;7.53;;
18738;SDS011;9498;51.862;19.460;2022-12-13T04:32:59;17.90;;;7.93;;
18738;SDS011;9498;51.862;19.460;2022-12-13T04:35:26;12.97;;;7.03;;
18738;SDS011;9498;51.862;19.460;2022-12-13T04:37:54;16.50;;;6.87;;
18738;SDS011;9498;51.862;19.460;2022-12-13T04:40:22;18.33;;;9.13;;
18738;SDS011;9498;51.862;19.460;2022-12-13T04:42:50;16.80;;;8.32;;
18738;SDS011;9498;51.862;19.460;2022-12-13T04:45:19;21.83;;;8.63;;
18738;SDS011;9498;51.862;19.460;2022-12-13T04:47:46;17.37;;;8.20;;
18738;SDS011;9498;51.862;19.460;2022-12-13T04:50:14;18.10;;;8.43;;
18738;SDS011;9498;51.862;19.460;2022-12-13T04:52:41;14.97;;;7.13;;
18738;SDS011;9498;51.862;19.460;2022-12-13T04:55:09;16.43;;;7.83;;
18738;SDS011;9498;51.862;19.460;2022-12-13T04:57:36;17.17;;;8.07;;
18738;SDS011;9498;51.862;19.460;2022-12-13T05:00:06;20.53;;;8.60;;
18738;SDS011;9498;51.862;19.460;2022-12-13T05:02:34;15.77;;;8.20;;
18738;SDS011;9498;51.862;19.460;2022-12-13T05:05:02;19.13;;;9.13;;
18738;SDS011;9498;51.862;19.460;2022-12-13T05:07:29;19.23;;;8.93;;
18738;SDS011;9498;51.862;19.460;2022-12-13T05:09:56;21.47;;;8.37;;
18738;SDS011;9498;51.862;19.460;2022-12-13T05:12:23;24.13;;;10.55;;
18738;SDS011;9498;51.862;19.460;2022-12-13T05:14:51;19.93;;;10.03;;
18738;SDS011;9498;51.862;19.460;2022-12-13T05:17:20;14.70;;;8.13;;
18738;SDS011;9498;51.862;19.460;2022-12-13T05:19:47;16.90;;;7.60;;
18738;SDS011;9498;51.862;19.460;2022-12-13T05:22:14;19.67;;;7.83;;
18738;SDS011;9498;51.862;19.460;2022-12-13T05:24:41;15.77;;;7.43;;
18738;SDS011;9498;51.862;19.460;2022-12-13T05:27:09;15.00;;;7.57;;
18738;SDS011;9498;51.862;19.460;2022-12-13T05:29:36;17.83;;;8.00;;
18738;SDS011;9498;51.862;19.460;2022-12-13T05:32:04;14.97;;;7.43;;
18738;SDS011;9498;51.862;19.460;2022-12-13T05:34:32;17.40;;;8.40;;
18738;SDS011;9498;51.862;19.460;2022-12-13T05:37:00;15.87;;;8.13;;
18738;SDS011;9498;51.862;19.460;2022-12-13T05:39:27;15.23;;;7.97;;
18738;SDS011;9498;51.862;19.460;2022-12-13T05:41:55;20.45;;;10.45;;
18738;SDS011;9498;51.862;19.460;2022-12-13T05:44:23;18.90;;;8.90;;
18738;SDS011;9498;51.862;19.460;2022-12-13T05:46:50;19.37;;;9.30;;
18738;SDS011;9498;51.862;19.460;2022-12-13T05:49:17;16.13;;;8.33;;
18738;SDS011;9498;51.862;19.460;2022-12-13T05:51:46;16.97;;;7.80;;
18738;SDS011;9498;51.862;19.460;2022-12-13T05:54:13;21.47;;;8.93;;
18738;SDS011;9498;51.862;19.460;2022-12-13T05:56:40;19.20;;;8.37;;
18738;SDS011;9498;51.862;19.460;2022-12-13T05:59:07;19.90;;;8.83;;
18738;SDS011;9498;51.862;19.460;2022-12-13T06:01:35;17.47;;;8.57;;
18738;SDS011;9498;51.862;19.460;2022-12-13T06:04:02;16.33;;;7.93;;
18738;SDS011;9498;51.862;19.460;2022-12-13T06:06:29;17.10;;;8.43;;
18738;SDS011;9498;51.862;19.460;2022-12-13T06:08:58;15.40;;;8.53;;
18738;SDS011;9498;51.862;19.460;2022-12-13T06:11:26;16.17;;;8.63;;
18738;SDS011;9498;51.862;19.460;2022-12-13T06:13:53;19.27;;;8.53;;
18738;SDS011;9498;51.862;19.460;2022-12-13T06:16:20;15.93;;;8.37;;
18738;SDS011;9498;51.862;19.460;2022-12-13T06:18:47;16.47;;;8.13;;
18738;SDS011;9498;51.862;19.460;2022-12-13T06:21:14;20.87;;;8.67;;
18738;SDS011;9498;51.862;19.460;2022-12-13T06:23:42;16.20;;;8.07;;
18738;SDS011;9498;51.862;19.460;2022-12-13T06:26:10;18.40;;;8.30;;
18738;SDS011;9498;51.862;19.460;2022-12-13T06:28:37;19.77;;;9.83;;
18738;SDS011;9498;51.862;19.460;2022-12-13T06:31:05;18.63;;;9.17;;
18738;SDS011;9498;51.862;19.460;2022-12-13T06:33:32;21.40;;;10.20;;
18738;SDS011;9498;51.862;19.460;2022-12-13T06:36:01;20.07;;;9.20;;
18738;SDS011;9498;51.862;19.460;2022-12-13T06:38:29;20.57;;;9.40;;
18738;SDS011;9498;51.862;19.460;2022-12-13T06:41:04;18.53;;;8.27;;
18738;SDS011;9498;51.862;19.460;2022-12-13T06:43:33;21.67;;;10.47;;
18738;SDS011;9498;51.862;19.460;2022-12-13T06:46:01;19.60;;;9.23;;
18738;SDS011;9498;51.862;19.460;2022-12-13T06:48:28;16.13;;;8.40;;
18738;SDS011;9498;51.862;19.460;2022-12-13T06:50:58;23.38;;;10.50;;
18738;SDS011;9498;51.862;19.460;2022-12-13T06:53:25;17.03;;;9.13;;
18738;SDS011;9498;51.862;19.460;2022-12-13T06:55:52;17.47;;;8.67;;
18738;SDS011;9498;51.862;19.460;2022-12-13T06:58:19;16.77;;;8.27;;
18738;SDS011;9498;51.862;19.460;2022-12-13T07:00:48;15.40;;;7.27;;
18738;SDS011;9498;51.862;19.460;2022-12-13T07:03:15;18.03;;;7.87;;
18738;SDS011;9498;51.862;19.460;2022-12-13T07:05:42;17.73;;;7.97;;
18738;SDS011;9498;51.862;19.460;2022-12-13T07:08:10;16.03;;;8.00;;
18738;SDS011;9498;51.862;19.460;2022-12-13T07:10:37;15.20;;;7.43;;
18738;SDS011;9498;51.862;19.460;2022-12-13T07:13:05;18.47;;;8.47;;
18738;SDS011;9498;51.862;19.460;2022-12-13T07:15:32;18.50;;;8.10;;
18738;SDS011;9498;51.862;19.460;2022-12-13T07:18:01;19.00;;;8.93;;
18738;SDS011;9498;51.862;19.460;2022-12-13T07:20:28;18.20;;;8.93;;
18738;SDS011;9498;51.862;19.460;2022-12-13T07:22:55;17.03;;;7.77;;
18738;SDS011;9498;51.862;19.460;2022-12-13T07:25:23;13.80;;;7.40;;
18738;SDS011;9498;51.862;19.460;2022-12-13T07:27:54;19.27;;;8.73;;
18738;SDS011;9498;51.862;19.460;2022-12-13T07:30:21;22.77;;;9.00;;
18738;SDS011;9498;51.862;19.460;2022-12-13T07:32:49;17.33;;;8.50;;
18738;SDS011;9498;51.862;19.460;2022-12-13T07:35:17;22.10;;;9.23;;
18738;SDS011;9498;51.862;19.460;2022-12-13T07:37:45;17.87;;;8.60;;
18738;SDS011;9498;51.862;19.460;2022-12-13T07:40:12;17.40;;;8.50;;
18738;SDS011;9498;51.862;19.460;2022-12-13T07:42:39;21.57;;;8.53;;
18738;SDS011;9498;51.862;19.460;2022-12-13T07:45:07;21.90;;;8.83;;
18738;SDS011;9498;51.862;19.460;2022-12-13T07:47:34;16.43;;;8.37;;
18738;SDS011;9498;51.862;19.460;2022-12-13T07:50:01;17.80;;;8.43;;
18738;SDS011;9498;51.862;19.460;2022-12-13T07:52:30;20.30;;;9.20;;
18738;SDS011;9498;51.862;19.460;2022-12-13T07:54:57;22.03;;;8.70;;
18738;SDS011;9498;51.862;19.460;2022-12-13T07:57:24;19.40;;;8.63;;
18738;SDS011;9498;51.862;19.460;2022-12-13T07:59:51;21.07;;;9.43;;
18738;SDS011;9498;51.862;19.460;2022-12-13T08:02:19;23.47;;;9.37;;
18738;SDS011;9498;51.862;19.460;2022-12-13T08:04:46;25.57;;;9.70;;
18738;SDS011;9498;51.862;19.460;2022-12-13T08:07:13;20.90;;;8.80;;
18738;SDS011;9498;51.862;19.460;2022-12-13T08:09:42;24.73;;;11.30;;
18738;SDS011;9498;51.862;19.460;2022-12-13T08:12:09;31.93;;;13.00;;
18738;SDS011;9498;51.862;19.460;2022-12-13T08:14:36;31.43;;;12.37;;
18738;SDS011;9498;51.862;19.460;2022-12-13T08:17:03;22.02;;;11.13;;
18738;SDS011;9498;51.862;19.460;2022-12-13T08:19:30;24.97;;;10.23;;
18738;SDS011;9498;51.862;19.460;2022-12-13T08:21:58;21.00;;;9.93;;
18738;SDS011;9498;51.862;19.460;2022-12-13T08:24:27;24.47;;;9.37;;
18738;SDS011;9498;51.862;19.460;2022-12-13T08:26:57;19.30;;;9.63;;
18738;SDS011;9498;51.862;19.460;2022-12-13T08:29:26;18.20;;;9.07;;
18738;SDS011;9498;51.862;19.460;2022-12-13T08:31:53;22.07;;;9.90;;
18738;SDS011;9498;51.862;19.460;2022-12-13T08:34:20;22.90;;;10.60;;
18738;SDS011;9498;51.862;19.460;2022-12-13T08:36:48;24.33;;;10.93;;
18738;SDS011;9498;51.862;19.460;2022-12-13T08:39:16;22.23;;;9.70;;
18738;SDS011;9498;51.862;19.460;2022-12-13T08:41:43;21.70;;;9.50;;
18738;SDS011;9498;51.862;19.460;2022-12-13T08:44:12;19.47;;;9.17;;
18738;SDS011;9498;51.862;19.460;2022-12-13T08:46:39;23.35;;;11.63;;
18738;SDS011;9498;51.862;19.460;2022-12-13T08:49:09;25.73;;;10.87;;
18738;SDS011;9498;51.862;19.460;2022-12-13T08:51:36;20.53;;;9.37;;
18738;SDS011;9498;51.862;19.460;2022-12-13T08:54:03;22.63;;;9.47;;
18738;SDS011;9498;51.862;19.460;2022-12-13T08:56:30;17.73;;;8.23;;
18738;SDS011;9498;51.862;19.460;2022-12-13T08:58:58;16.23;;;8.07;;
18738;SDS011;9498;51.862;19.460;2022-12-13T09:01:26;18.37;;;8.73;;
18738;SDS011;9498;51.862;19.460;2022-12-13T09:03:54;17.87;;;8.60;;
18738;SDS011;9498;51.862;19.460;2022-12-13T09:06:21;19.03;;;9.13;;
18738;SDS011;9498;51.862;19.460;2022-12-13T09:08:51;18.20;;;8.83;;
18738;SDS011;9498;51.862;19.460;2022-12-13T09:11:18;18.77;;;9.03;;
18738;SDS011;9498;51.862;19.460;2022-12-13T09:13:46;22.55;;;11.35;;
18738;SDS011;9498;51.862;19.460;2022-12-13T09:16:14;18.83;;;10.10;;
18738;SDS011;9498;51.862;19.460;2022-12-13T09:18:43;20.00;;;9.00;;
18738;SDS011;9498;51.862;19.460;2022-12-13T09:21:11;19.87;;;9.30;;
18738;SDS011;9498;51.862;19.460;2022-12-13T09:23:39;22.27;;;8.67;;
18738;SDS011;9498;51.862;19.460;2022-12-13T09:26:07;22.87;;;9.13;;
18738;SDS011;9498;51.862;19.460;2022-12-13T09:28:35;18.98;;;9.63;;
18738;SDS011;9498;51.862;19.460;2022-12-13T09:31:05;22.30;;;10.40;;
18738;SDS011;9498;51.862;19.460;2022-12-13T09:33:32;21.53;;;9.47;;
18738;SDS011;9498;51.862;19.460;2022-12-13T09:36:03;19.27;;;9.63;;
18738;SDS011;9498;51.862;19.460;2022-12-13T09:38:31;21.17;;;8.90;;
18738;SDS011;9498;51.862;19.460;2022-12-13T09:40:59;21.13;;;9.73;;
18738;SDS011;9498;51.862;19.460;2022-12-13T09:43:30;22.17;;;9.70;;
18738;SDS011;9498;51.862;19.460;2022-12-13T09:45:58;19.73;;;9.43;;
18738;SDS011;9498;51.862;19.460;2022-12-13T09:48:26;18.77;;;8.87;;
18738;SDS011;9498;51.862;19.460;2022-12-13T09:50:54;20.47;;;9.17;;
18738;SDS011;9498;51.862;19.460;2022-12-13T09:53:22;27.17;;;10.80;;
18738;SDS011;9498;51.862;19.460;2022-12-13T09:55:50;25.63;;;10.70;;
18738;SDS011;9498;51.862;19.460;2022-12-13T09:58:18;23.40;;;11.85;;
18738;SDS011;9498;51.862;19.460;2022-12-13T10:00:46;21.23;;;10.73;;
18738;SDS011;9498;51.862;19.460;2022-12-13T10:03:15;18.70;;;9.97;;
18738;SDS011;9498;51.862;19.460;2022-12-13T10:05:43;22.30;;;11.10;;
18738;SDS011;9498;51.862;19.460;2022-12-13T10:08:12;23.80;;;10.87;;
18738;SDS011;9498;51.862;19.460;2022-12-13T10:10:41;24.30;;;11.40;;
18738;SDS011;9498;51.862;19.460;2022-12-13T10:13:11;20.73;;;10.53;;
18738;SDS011;9498;51.862;19.460;2022-12-13T10:15:41;26.33;;;11.57;;
18738;SDS011;9498;51.862;19.460;2022-12-13T10:18:11;22.17;;;10.83;;
18738;SDS011;9498;51.862;19.460;2022-12-13T10:20:40;20.07;;;10.50;;
18738;SDS011;9498;51.862;19.460;2022-12-13T10:23:07;23.00;;;10.23;;
18738;SDS011;9498;51.862;19.460;2022-12-13T10:25:47;22.30;;;9.87;;
18738;SDS011;9498;51.862;19.460;2022-12-13T10:28:23;28.50;;;11.27;;
18738;SDS011;9498;51.862;19.460;2022-12-13T10:30:50;24.37;;;10.97;;
18738;SDS011;9498;51.862;19.460;2022-12-13T10:33:19;22.27;;;10.00;;
18738;SDS011;9498;51.862;19.460;2022-12-13T10:36:00;24.83;;;11.20;;
18738;SDS011;9498;51.862;19.460;2022-12-13T10:38:28;32.03;;;11.30;;
18738;SDS011;9498;51.862;19.460;2022-12-13T10:40:57;32.13;;;14.10;;
18738;SDS011;9498;51.862;19.460;2022-12-13T10:43:24;29.37;;;12.17;;
18738;SDS011;9498;51.862;19.460;2022-12-13T10:46:01;26.00;;;10.73;;
18738;SDS011;9498;51.862;19.460;2022-12-13T10:48:31;22.77;;;10.43;;
18738;SDS011;9498;51.862;19.460;2022-12-13T10:51:00;27.27;;;11.40;;
18738;SDS011;9498;51.862;19.460;2022-12-13T10:53:29;23.53;;;10.47;;
18738;SDS011;9498;51.862;19.460;2022-12-13T10:55:58;21.50;;;9.97;;
18738;SDS011;9498;51.862;19.460;2022-12-13T10:58:33;22.23;;;9.73;;
18738;SDS011;9498;51.862;19.460;2022-12-13T11:01:07;24.83;;;10.23;;
18738;SDS011;9498;51.862;19.460;2022-12-13T11:03:34;25.73;;;11.03;;
18738;SDS011;9498;51.862;19.460;2022-12-13T11:06:03;23.90;;;11.03;;
18738;SDS011;9498;51.862;19.460;2022-12-13T11:08:31;25.58;;;12.30;;
18738;SDS011;9498;51.862;19.460;2022-12-13T11:11:00;23.73;;;10.87;;
18738;SDS011;9498;51.862;19.460;2022-12-13T11:13:30;22.80;;;11.10;;
18738;SDS011;9498;51.862;19.460;2022-12-13T11:15:58;24.37;;;10.53;;
18738;SDS011;9498;51.862;19.460;2022-12-13T11:18:28;27.17;;;11.70;;
18738;SDS011;9498;51.862;19.460;2022-12-13T11:20:56;23.97;;;10.50;;
18738;SDS011;9498;51.862;19.460;2022-12-13T11:23:26;27.10;;;10.00;;
18738;SDS011;9498;51.862;19.460;2022-12-13T11:25:55;25.73;;;11.07;;
18738;SDS011;9498;51.862;19.460;2022-12-13T11:28:38;25.23;;;11.30;;
18738;SDS011;9498;51.862;19.460;2022-12-13T11:31:09;25.10;;;11.47;;
18738;SDS011;9498;51.862;19.460;2022-12-13T11:33:39;29.13;;;11.70;;
18738;SDS011;9498;51.862;19.460;2022-12-13T11:36:11;23.80;;;11.53;;
18738;SDS011;9498;51.862;19.460;2022-12-13T11:38:48;29.38;;;13.90;;
18738;SDS011;9498;51.862;19.460;2022-12-13T11:41:18;27.17;;;12.20;;
18738;SDS011;9498;51.862;19.460;2022-12-13T11:43:51;24.30;;;11.50;;
18738;SDS011;9498;51.862;19.460;2022-12-13T11:46:22;25.90;;;11.33;;
18738;SDS011;9498;51.862;19.460;2022-12-13T11:48:53;29.37;;;12.83;;
18738;SDS011;9498;51.862;19.460;2022-12-13T11:51:24;32.80;;;13.55;;
18738;SDS011;9498;51.862;19.460;2022-12-13T11:53:54;28.23;;;12.27;;
18738;SDS011;9498;51.862;19.460;2022-12-13T11:56:23;30.83;;;13.47;;
18738;SDS011;9498;51.862;19.460;2022-12-13T11:58:55;27.53;;;12.20;;
18738;SDS011;9498;51.862;19.460;2022-12-13T12:01:25;27.87;;;13.07;;
18738;SDS011;9498;51.862;19.460;2022-12-13T12:03:56;33.90;;;13.40;;
18738;SDS011;9498;51.862;19.460;2022-12-13T12:06:27;26.23;;;11.17;;
18738;SDS011;9498;51.862;19.460;2022-12-13T12:08:56;25.87;;;11.93;;
18738;SDS011;9498;51.862;19.460;2022-12-13T12:11:25;28.90;;;12.37;;
18738;SDS011;9498;51.862;19.460;2022-12-13T12:13:57;34.63;;;12.30;;
18738;SDS011;9498;51.862;19.460;2022-12-13T12:16:29;28.23;;;12.23;;
18738;SDS011;9498;51.862;19.460;2022-12-13T12:18:58;30.13;;;12.00;;
18738;SDS011;9498;51.862;19.460;2022-12-13T12:21:28;27.07;;;12.57;;
18738;SDS011;9498;51.862;19.460;2022-12-13T12:24:01;33.72;;;14.98;;
18738;SDS011;9498;51.862;19.460;2022-12-13T12:26:32;29.50;;;13.23;;
18738;SDS011;9498;51.862;19.460;2022-12-13T12:29:09;28.13;;;12.77;;
18738;SDS011;9498;51.862;19.460;2022-12-13T12:31:44;30.90;;;13.03;;
18738;SDS011;9498;51.862;19.460;2022-12-13T12:34:19;27.83;;;12.67;;
18738;SDS011;9498;51.862;19.460;2022-12-13T12:36:52;30.13;;;12.83;;
18738;SDS011;9498;51.862;19.460;2022-12-13T12:39:27;27.10;;;12.03;;
18738;SDS011;9498;51.862;19.460;2022-12-13T12:42:08;27.27;;;11.40;;
18738;SDS011;9498;51.862;19.460;2022-12-13T12:44:39;30.03;;;12.27;;
18738;SDS011;9498;51.862;19.460;2022-12-13T12:47:17;25.60;;;12.70;;
18738;SDS011;9498;51.862;19.460;2022-12-13T12:49:52;26.20;;;12.10;;
18738;SDS011;9498;51.862;19.460;2022-12-13T12:52:25;30.02;;;15.38;;
18738;SDS011;9498;51.862;19.460;2022-12-13T12:54:55;27.87;;;12.83;;
18738;SDS011;9498;51.862;19.460;2022-12-13T12:57:28;33.83;;;13.43;;
18738;SDS011;9498;51.862;19.460;2022-12-13T13:00:02;31.17;;;12.83;;
18738;SDS011;9498;51.862;19.460;2022-12-13T13:02:31;32.50;;;12.70;;
18738;SDS011;9498;51.862;19.460;2022-12-13T13:04:58;33.97;;;14.03;;
18738;SDS011;9498;51.862;19.460;2022-12-13T13:07:29;31.77;;;12.57;;
18738;SDS011;9498;51.862;19.460;2022-12-13T13:09:58;32.27;;;14.50;;
18738;SDS011;9498;51.862;19.460;2022-12-13T13:12:25;33.10;;;13.40;;
18738;SDS011;9498;51.862;19.460;2022-12-13T13:14:52;27.20;;;12.37;;
18738;SDS011;9498;51.862;19.460;2022-12-13T13:20:19;29.53;;;12.83;;
18738;SDS011;9498;51.862;19.460;2022-12-13T13:22:47;30.17;;;13.40;;
18738;SDS011;9498;51.862;19.460;2022-12-13T13:25:23;31.70;;;13.63;;
18738;SDS011;9498;51.862;19.460;2022-12-13T13:28:01;34.10;;;13.70;;
18738;SDS011;9498;51.862;19.460;2022-12-13T13:30:29;28.37;;;12.07;;
18738;SDS011;9498;51.862;19.460;2022-12-13T13:32:58;34.15;;;15.13;;
18738;SDS011;9498;51.862;19.460;2022-12-13T13:47:13;31.03;;;14.67;;
18738;SDS011;9498;51.862;19.460;2022-12-13T13:49:45;31.07;;;14.10;;
18738;SDS011;9498;51.862;19.460;2022-12-13T13:52:18;32.53;;;13.47;;
18738;SDS011;9498;51.862;19.460;2022-12-13T13:58:20;40.67;;;14.60;;
18738;SDS011;9498;51.862;19.460;2022-12-13T14:04:18;33.53;;;13.83;;
18738;SDS011;9498;51.862;19.460;2022-12-13T14:15:43;43.63;;;19.88;;
18738;SDS011;9498;51.862;19.460;2022-12-13T14:18:22;41.00;;;17.20;;
18738;SDS011;9498;51.862;19.460;2022-12-13T14:23:44;40.23;;;16.50;;
18738;SDS011;9498;51.862;19.460;2022-12-13T14:26:24;39.50;;;17.00;;
18738;SDS011;9498;51.862;19.460;2022-12-13T14:28:53;39.73;;;15.47;;
18738;SDS011;9498;51.862;19.460;2022-12-13T14:31:21;41.77;;;17.00;;
18738;SDS011;9498;51.862;19.460;2022-12-13T14:33:50;41.47;;;15.97;;
18738;SDS011;9498;51.862;19.460;2022-12-13T14:36:24;44.53;;;16.57;;
18738;SDS011;9498;51.862;19.460;2022-12-13T14:38:57;44.70;;;17.33;;
18738;SDS011;9498;51.862;19.460;2022-12-13T14:41:26;46.47;;;17.58;;
18738;SDS011;9498;51.862;19.460;2022-12-13T14:43:54;42.60;;;17.23;;
18738;SDS011;9498;51.862;19.460;2022-12-13T14:46:21;51.93;;;18.10;;
18738;SDS011;9498;51.862;19.460;2022-12-13T14:48:49;54.70;;;19.80;;
18738;SDS011;9498;51.862;19.460;2022-12-13T14:51:23;57.67;;;20.20;;
18738;SDS011;9498;51.862;19.460;2022-12-13T14:53:54;59.60;;;22.43;;
18738;SDS011;9498;51.862;19.460;2022-12-13T14:56:22;63.53;;;22.33;;
18738;SDS011;9498;51.862;19.460;2022-12-13T14:58:55;60.20;;;22.33;;
18738;SDS011;9498;51.862;19.460;2022-12-13T15:01:24;59.80;;;24.07;;
18738;SDS011;9498;51.862;19.460;2022-12-13T15:03:51;59.70;;;22.80;;
18738;SDS011;9498;51.862;19.460;2022-12-13T15:06:19;57.40;;;22.10;;
18738;SDS011;9498;51.862;19.460;2022-12-13T15:08:46;62.00;;;21.47;;
18738;SDS011;9498;51.862;19.460;2022-12-13T15:11:14;62.53;;;26.73;;
18738;SDS011;9498;51.862;19.460;2022-12-13T15:13:41;51.83;;;22.40;;